sensor_id;sensor_type;location;lat;lon;timestamp;temperature;humidity
46458;DHT22;32155;54.076;12.092;2023-04-07T00:01:53;2.40;99.90
46458;DHT22;32155;54.076;12.092;2023-04-07T00:04:18;2.40;99.90
46458;DHT22;32155;54.076;12.092;2023-04-07T00:06:44;2.40;99.90
46458;DHT22;32155;54.076;12.092;2023-04-07T00:09:10;2.40;99.90
46458;DHT22;32155;54.076;12.092;2023-04-07T00:11:36;2.30;99.90
46458;DHT22;32155;54.076;12.092;2023-04-07T00:14:02;2.40;99.90
46458;DHT22;32155;54.076;12.092;2023-04-07T00:16:28;2.30;99.90
46458;DHT22;32155;54.076;12.092;2023-04-07T00:18:53;2.30;99.90
46458;DHT22;32155;54.076;12.092;2023-04-07T00:21:19;2.30;99.90
46458;DHT22;32155;54.076;12.092;2023-04-07T00:23:50;2.30;99.90
46458;DHT22;32155;54.076;12.092;2023-04-07T00:26:16;2.20;99.90
46458;DHT22;32155;54.076;12.092;2023-04-07T00:28:44;2.20;99.90
46458;DHT22;32155;54.076;12.092;2023-04-07T00:31:12;2.10;99.90
46458;DHT22;32155;54.076;12.092;2023-04-07T00:33:38;2.20;99.90
46458;DHT22;32155;54.076;12.092;2023-04-07T00:36:06;2.10;99.90
46458;DHT22;32155;54.076;12.092;2023-04-07T00:38:32;2.10;99.90
46458;DHT22;32155;54.076;12.092;2023-04-07T00:40:58;2.10;99.90
46458;DHT22;32155;54.076;12.092;2023-04-07T00:43:24;2.10;99.90
46458;DHT22;32155;54.076;12.092;2023-04-07T00:45:54;2.00;99.90
46458;DHT22;32155;54.076;12.092;2023-04-07T00:48:20;2.00;99.90
46458;DHT22;32155;54.076;12.092;2023-04-07T00:50:46;2.00;99.90
46458;DHT22;32155;54.076;12.092;2023-04-07T00:53:12;2.10;99.90
46458;DHT22;32155;54.076;12.092;2023-04-07T00:55:38;2.10;99.90
46458;DHT22;32155;54.076;12.092;2023-04-07T00:58:03;2.00;99.90
46458;DHT22;32155;54.076;12.092;2023-04-07T01:01:06;2.00;99.90
46458;DHT22;32155;54.076;12.092;2023-04-07T01:03:38;2.00;99.90
46458;DHT22;32155;54.076;12.092;2023-04-07T01:06:10;2.00;99.90
46458;DHT22;32155;54.076;12.092;2023-04-07T01:14:02;2.00;99.90
46458;DHT22;32155;54.076;12.092;2023-04-07T01:21:57;1.90;99.90
46458;DHT22;32155;54.076;12.092;2023-04-07T01:24:38;1.90;99.90
46458;DHT22;32155;54.076;12.092;2023-04-07T01:30:00;1.90;99.90
46458;DHT22;32155;54.076;12.092;2023-04-07T01:32:29;1.90;99.90
46458;DHT22;32155;54.076;12.092;2023-04-07T01:34:56;1.90;99.90
46458;DHT22;32155;54.076;12.092;2023-04-07T01:37:24;1.90;99.90
46458;DHT22;32155;54.076;12.092;2023-04-07T01:39:51;1.90;99.90
46458;DHT22;32155;54.076;12.092;2023-04-07T01:42:18;1.90;99.90
46458;DHT22;32155;54.076;12.092;2023-04-07T01:44:45;1.90;99.90
46458;DHT22;32155;54.076;12.092;2023-04-07T01:47:13;1.80;99.90
46458;DHT22;32155;54.076;12.092;2023-04-07T01:49:42;1.80;99.90
46458;DHT22;32155;54.076;12.092;2023-04-07T01:52:09;1.80;99.90
46458;DHT22;32155;54.076;12.092;2023-04-07T01:54:36;1.70;99.90
46458;DHT22;32155;54.076;12.092;2023-04-07T01:57:02;1.70;99.90
46458;DHT22;32155;54.076;12.092;2023-04-07T01:59:27;1.70;99.90
46458;DHT22;32155;54.076;12.092;2023-04-07T02:01:53;1.70;99.90
46458;DHT22;32155;54.076;12.092;2023-04-07T02:04:32;1.70;99.90
46458;DHT22;32155;54.076;12.092;2023-04-07T02:07:04;1.70;99.90
46458;DHT22;32155;54.076;12.092;2023-04-07T02:09:35;1.60;99.90
46458;DHT22;32155;54.076;12.092;2023-04-07T02:12:04;1.70;99.90
46458;DHT22;32155;54.076;12.092;2023-04-07T02:14:31;1.80;99.90
46458;DHT22;32155;54.076;12.092;2023-04-07T02:16:58;1.70;99.90
46458;DHT22;32155;54.076;12.092;2023-04-07T02:19:26;1.60;99.90
46458;DHT22;32155;54.076;12.092;2023-04-07T02:21:52;1.60;99.90
46458;DHT22;32155;54.076;12.092;2023-04-07T02:24:19;1.70;99.90
46458;DHT22;32155;54.076;12.092;2023-04-07T02:26:46;1.70;99.90
46458;DHT22;32155;54.076;12.092;2023-04-07T02:29:12;1.70;99.90
46458;DHT22;32155;54.076;12.092;2023-04-07T02:31:38;1.70;99.90
46458;DHT22;32155;54.076;12.092;2023-04-07T02:34:06;1.70;99.90
46458;DHT22;32155;54.076;12.092;2023-04-07T02:36:31;1.60;99.90
46458;DHT22;32155;54.076;12.092;2023-04-07T02:38:57;1.60;99.90
46458;DHT22;32155;54.076;12.092;2023-04-07T02:41:23;1.60;99.90
46458;DHT22;32155;54.076;12.092;2023-04-07T02:43:48;1.60;99.90
46458;DHT22;32155;54.076;12.092;2023-04-07T02:46:14;1.60;99.90
46458;DHT22;32155;54.076;12.092;2023-04-07T02:48:40;1.50;99.90
46458;DHT22;32155;54.076;12.092;2023-04-07T02:51:05;1.60;99.90
46458;DHT22;32155;54.076;12.092;2023-04-07T02:53:33;1.50;99.90
46458;DHT22;32155;54.076;12.092;2023-04-07T02:55:59;1.50;99.90
46458;DHT22;32155;54.076;12.092;2023-04-07T02:58:24;1.50;99.90
46458;DHT22;32155;54.076;12.092;2023-04-07T03:00:50;1.60;99.90
46458;DHT22;32155;54.076;12.092;2023-04-07T03:03:20;1.60;99.90
46458;DHT22;32155;54.076;12.092;2023-04-07T03:05:48;1.70;99.90
46458;DHT22;32155;54.076;12.092;2023-04-07T03:08:14;1.60;99.90
46458;DHT22;32155;54.076;12.092;2023-04-07T03:10:39;1.60;99.90
46458;DHT22;32155;54.076;12.092;2023-04-07T03:13:08;1.60;99.90
46458;DHT22;32155;54.076;12.092;2023-04-07T03:15:34;1.70;99.90
46458;DHT22;32155;54.076;12.092;2023-04-07T03:18:01;1.70;99.90
46458;DHT22;32155;54.076;12.092;2023-04-07T03:20:27;1.70;99.90
46458;DHT22;32155;54.076;12.092;2023-04-07T03:22:53;1.60;99.90
46458;DHT22;32155;54.076;12.092;2023-04-07T03:25:18;1.60;99.90
46458;DHT22;32155;54.076;12.092;2023-04-07T03:27:44;1.60;99.90
46458;DHT22;32155;54.076;12.092;2023-04-07T03:30:10;1.60;99.90
46458;DHT22;32155;54.076;12.092;2023-04-07T03:32:36;1.60;99.90
46458;DHT22;32155;54.076;12.092;2023-04-07T03:35:04;1.40;99.90
46458;DHT22;32155;54.076;12.092;2023-04-07T03:37:32;1.50;99.90
46458;DHT22;32155;54.076;12.092;2023-04-07T03:39:57;1.50;99.90
46458;DHT22;32155;54.076;12.092;2023-04-07T03:42:23;1.40;99.90
46458;DHT22;32155;54.076;12.092;2023-04-07T03:44:49;1.40;99.90
46458;DHT22;32155;54.076;12.092;2023-04-07T03:47:14;1.50;99.90
46458;DHT22;32155;54.076;12.092;2023-04-07T03:49:40;1.50;99.90
46458;DHT22;32155;54.076;12.092;2023-04-07T03:52:06;1.50;99.90
46458;DHT22;32155;54.076;12.092;2023-04-07T03:54:33;1.50;99.90
46458;DHT22;32155;54.076;12.092;2023-04-07T03:57:00;1.60;99.90
46458;DHT22;32155;54.076;12.092;2023-04-07T03:59:28;1.50;99.90
46458;DHT22;32155;54.076;12.092;2023-04-07T04:01:54;1.50;99.90
46458;DHT22;32155;54.076;12.092;2023-04-07T04:04:20;1.40;99.90
46458;DHT22;32155;54.076;12.092;2023-04-07T04:06:49;1.30;99.90
46458;DHT22;32155;54.076;12.092;2023-04-07T04:09:15;1.40;99.90
46458;DHT22;32155;54.076;12.092;2023-04-07T04:11:41;1.40;99.90
46458;DHT22;32155;54.076;12.092;2023-04-07T04:14:06;1.40;99.90
46458;DHT22;32155;54.076;12.092;2023-04-07T04:16:32;1.40;99.90
46458;DHT22;32155;54.076;12.092;2023-04-07T04:19:00;1.40;99.90
46458;DHT22;32155;54.076;12.092;2023-04-07T04:21:26;1.40;99.90
46458;DHT22;32155;54.076;12.092;2023-04-07T04:23:54;1.40;99.90
46458;DHT22;32155;54.076;12.092;2023-04-07T04:26:24;1.40;99.90
46458;DHT22;32155;54.076;12.092;2023-04-07T04:28:54;1.30;99.90
46458;DHT22;32155;54.076;12.092;2023-04-07T04:31:19;1.50;99.90
46458;DHT22;32155;54.076;12.092;2023-04-07T04:33:45;1.50;99.90
46458;DHT22;32155;54.076;12.092;2023-04-07T04:36:13;1.40;99.90
46458;DHT22;32155;54.076;12.092;2023-04-07T04:38:40;1.50;99.90
46458;DHT22;32155;54.076;12.092;2023-04-07T04:41:05;1.50;99.90
46458;DHT22;32155;54.076;12.092;2023-04-07T04:43:33;1.50;99.90
46458;DHT22;32155;54.076;12.092;2023-04-07T04:45:59;1.50;99.90
46458;DHT22;32155;54.076;12.092;2023-04-07T04:48:27;1.50;99.90
46458;DHT22;32155;54.076;12.092;2023-04-07T04:50:52;1.50;99.90
46458;DHT22;32155;54.076;12.092;2023-04-07T04:53:18;1.50;99.90
46458;DHT22;32155;54.076;12.092;2023-04-07T04:55:43;1.50;99.90
46458;DHT22;32155;54.076;12.092;2023-04-07T04:58:12;1.60;99.90
46458;DHT22;32155;54.076;12.092;2023-04-07T05:00:38;1.70;99.90
46458;DHT22;32155;54.076;12.092;2023-04-07T05:03:06;1.70;99.90
46458;DHT22;32155;54.076;12.092;2023-04-07T05:05:31;1.80;99.90
46458;DHT22;32155;54.076;12.092;2023-04-07T05:07:57;1.80;99.90
46458;DHT22;32155;54.076;12.092;2023-04-07T05:10:22;1.90;99.90
46458;DHT22;32155;54.076;12.092;2023-04-07T05:12:48;2.00;99.90
46458;DHT22;32155;54.076;12.092;2023-04-07T05:15:16;2.10;99.90
46458;DHT22;32155;54.076;12.092;2023-04-07T05:17:42;2.20;99.90
46458;DHT22;32155;54.076;12.092;2023-04-07T05:20:09;2.20;99.90
46458;DHT22;32155;54.076;12.092;2023-04-07T05:22:37;2.20;99.90
46458;DHT22;32155;54.076;12.092;2023-04-07T05:25:03;2.30;99.90
46458;DHT22;32155;54.076;12.092;2023-04-07T05:27:28;2.40;99.90
46458;DHT22;32155;54.076;12.092;2023-04-07T05:29:54;2.50;99.90
46458;DHT22;32155;54.076;12.092;2023-04-07T05:32:20;2.60;99.90
46458;DHT22;32155;54.076;12.092;2023-04-07T05:34:45;2.70;99.90
46458;DHT22;32155;54.076;12.092;2023-04-07T05:37:16;2.90;99.90
46458;DHT22;32155;54.076;12.092;2023-04-07T05:39:41;3.00;99.90
46458;DHT22;32155;54.076;12.092;2023-04-07T05:42:07;3.20;99.90
46458;DHT22;32155;54.076;12.092;2023-04-07T05:44:35;3.30;99.90
46458;DHT22;32155;54.076;12.092;2023-04-07T05:47:01;3.40;99.90
46458;DHT22;32155;54.076;12.092;2023-04-07T05:49:30;3.60;99.90
46458;DHT22;32155;54.076;12.092;2023-04-07T05:51:56;3.80;99.90
46458;DHT22;32155;54.076;12.092;2023-04-07T05:54:21;3.80;99.90
46458;DHT22;32155;54.076;12.092;2023-04-07T05:56:47;3.90;99.90
46458;DHT22;32155;54.076;12.092;2023-04-07T05:59:13;4.10;99.90
46458;DHT22;32155;54.076;12.092;2023-04-07T06:01:38;4.20;99.90
46458;DHT22;32155;54.076;12.092;2023-04-07T06:04:04;4.30;99.90
46458;DHT22;32155;54.076;12.092;2023-04-07T06:06:30;4.40;99.90
46458;DHT22;32155;54.076;12.092;2023-04-07T06:08:58;4.60;99.90
46458;DHT22;32155;54.076;12.092;2023-04-07T06:11:26;4.70;99.90
46458;DHT22;32155;54.076;12.092;2023-04-07T06:13:52;4.90;99.90
46458;DHT22;32155;54.076;12.092;2023-04-07T06:16:18;5.00;99.90
46458;DHT22;32155;54.076;12.092;2023-04-07T06:18:46;5.20;99.90
46458;DHT22;32155;54.076;12.092;2023-04-07T06:21:11;5.60;99.90
46458;DHT22;32155;54.076;12.092;2023-04-07T06:23:37;5.90;99.90
46458;DHT22;32155;54.076;12.092;2023-04-07T06:26:03;6.40;99.90
46458;DHT22;32155;54.076;12.092;2023-04-07T06:28:28;6.60;99.90
46458;DHT22;32155;54.076;12.092;2023-04-07T06:31:00;6.80;99.90
46458;DHT22;32155;54.076;12.092;2023-04-07T06:33:25;6.90;99.90
46458;DHT22;32155;54.076;12.092;2023-04-07T06:35:52;6.80;99.90
46458;DHT22;32155;54.076;12.092;2023-04-07T06:38:20;6.90;99.90
46458;DHT22;32155;54.076;12.092;2023-04-07T06:40:46;6.90;99.90
46458;DHT22;32155;54.076;12.092;2023-04-07T06:43:12;6.90;99.90
46458;DHT22;32155;54.076;12.092;2023-04-07T06:45:37;7.20;99.90
46458;DHT22;32155;54.076;12.092;2023-04-07T06:48:03;7.30;99.90
46458;DHT22;32155;54.076;12.092;2023-04-07T06:50:31;7.40;99.90
46458;DHT22;32155;54.076;12.092;2023-04-07T06:52:59;7.80;99.90
46458;DHT22;32155;54.076;12.092;2023-04-07T06:55:24;8.10;99.90
46458;DHT22;32155;54.076;12.092;2023-04-07T06:57:51;8.40;99.90
46458;DHT22;32155;54.076;12.092;2023-04-07T07:00:19;8.30;99.90
46458;DHT22;32155;54.076;12.092;2023-04-07T07:02:47;8.60;99.90
46458;DHT22;32155;54.076;12.092;2023-04-07T07:05:13;8.70;99.90
46458;DHT22;32155;54.076;12.092;2023-04-07T07:07:43;9.10;99.90
46458;DHT22;32155;54.076;12.092;2023-04-07T07:10:09;8.70;99.90
46458;DHT22;32155;54.076;12.092;2023-04-07T07:12:35;8.50;99.90
46458;DHT22;32155;54.076;12.092;2023-04-07T07:15:01;8.40;99.90
46458;DHT22;32155;54.076;12.092;2023-04-07T07:17:30;8.80;99.90
46458;DHT22;32155;54.076;12.092;2023-04-07T07:19:55;8.70;99.90
46458;DHT22;32155;54.076;12.092;2023-04-07T07:22:21;8.40;99.90
46458;DHT22;32155;54.076;12.092;2023-04-07T07:24:47;8.60;99.90
46458;DHT22;32155;54.076;12.092;2023-04-07T07:27:15;8.40;99.90
46458;DHT22;32155;54.076;12.092;2023-04-07T07:29:41;8.60;99.90
46458;DHT22;32155;54.076;12.092;2023-04-07T07:32:07;9.10;99.90
46458;DHT22;32155;54.076;12.092;2023-04-07T07:34:35;9.40;99.90
46458;DHT22;32155;54.076;12.092;2023-04-07T07:37:01;9.80;99.90
46458;DHT22;32155;54.076;12.092;2023-04-07T07:39:26;9.80;99.90
46458;DHT22;32155;54.076;12.092;2023-04-07T07:41:54;9.70;99.90
46458;DHT22;32155;54.076;12.092;2023-04-07T07:44:20;10.00;99.90
46458;DHT22;32155;54.076;12.092;2023-04-07T07:46:47;10.30;99.90
46458;DHT22;32155;54.076;12.092;2023-04-07T07:49:16;10.00;99.90
46458;DHT22;32155;54.076;12.092;2023-04-07T07:51:41;10.40;99.90
46458;DHT22;32155;54.076;12.092;2023-04-07T07:54:10;10.30;99.90
46458;DHT22;32155;54.076;12.092;2023-04-07T07:56:36;10.50;99.90
46458;DHT22;32155;54.076;12.092;2023-04-07T07:59:04;10.70;99.90
46458;DHT22;32155;54.076;12.092;2023-04-07T08:01:33;11.10;99.90
46458;DHT22;32155;54.076;12.092;2023-04-07T08:03:58;10.90;99.90
46458;DHT22;32155;54.076;12.092;2023-04-07T08:06:26;11.50;99.90
46458;DHT22;32155;54.076;12.092;2023-04-07T08:08:56;11.60;99.90
46458;DHT22;32155;54.076;12.092;2023-04-07T08:11:22;11.30;99.90
46458;DHT22;32155;54.076;12.092;2023-04-07T08:13:47;11.40;99.90
46458;DHT22;32155;54.076;12.092;2023-04-07T08:16:13;11.30;99.90
46458;DHT22;32155;54.076;12.092;2023-04-07T08:18:41;11.80;99.90
46458;DHT22;32155;54.076;12.092;2023-04-07T08:21:06;12.70;99.90
46458;DHT22;32155;54.076;12.092;2023-04-07T08:23:32;13.20;99.90
46458;DHT22;32155;54.076;12.092;2023-04-07T08:25:58;13.60;99.90
46458;DHT22;32155;54.076;12.092;2023-04-07T08:28:25;14.70;99.90
46458;DHT22;32155;54.076;12.092;2023-04-07T08:30:51;16.20;99.90
46458;DHT22;32155;54.076;12.092;2023-04-07T08:33:19;17.30;99.90
46458;DHT22;32155;54.076;12.092;2023-04-07T08:35:47;17.00;99.90
46458;DHT22;32155;54.076;12.092;2023-04-07T08:38:13;16.30;99.90
46458;DHT22;32155;54.076;12.092;2023-04-07T08:40:41;17.00;99.90
46458;DHT22;32155;54.076;12.092;2023-04-07T08:43:10;18.10;99.90
46458;DHT22;32155;54.076;12.092;2023-04-07T08:45:38;18.30;98.10
46458;DHT22;32155;54.076;12.092;2023-04-07T08:48:14;19.30;96.90
46458;DHT22;32155;54.076;12.092;2023-04-07T08:50:43;19.80;93.90
46458;DHT22;32155;54.076;12.092;2023-04-07T08:53:09;20.90;90.30
46458;DHT22;32155;54.076;12.092;2023-04-07T08:55:40;19.70;86.90
46458;DHT22;32155;54.076;12.092;2023-04-07T08:58:08;17.70;90.70
46458;DHT22;32155;54.076;12.092;2023-04-07T09:00:42;16.90;92.70
46458;DHT22;32155;54.076;12.092;2023-04-07T09:03:10;16.30;94.70
46458;DHT22;32155;54.076;12.092;2023-04-07T09:05:38;16.30;93.40
46458;DHT22;32155;54.076;12.092;2023-04-07T09:08:06;15.50;93.70
46458;DHT22;32155;54.076;12.092;2023-04-07T09:10:31;14.80;95.50
46458;DHT22;32155;54.076;12.092;2023-04-07T09:12:58;14.20;96.90
46458;DHT22;32155;54.076;12.092;2023-04-07T09:15:25;13.90;98.10
46458;DHT22;32155;54.076;12.092;2023-04-07T09:17:50;15.10;98.10
46458;DHT22;32155;54.076;12.092;2023-04-07T09:20:16;15.50;96.60
46458;DHT22;32155;54.076;12.092;2023-04-07T09:22:42;15.60;96.90
46458;DHT22;32155;54.076;12.092;2023-04-07T09:25:21;14.10;97.70
46458;DHT22;32155;54.076;12.092;2023-04-07T09:28:01;13.60;98.40
46458;DHT22;32155;54.076;12.092;2023-04-07T09:30:29;12.90;99.90
46458;DHT22;32155;54.076;12.092;2023-04-07T09:32:56;12.50;99.90
46458;DHT22;32155;54.076;12.092;2023-04-07T09:35:22;12.20;99.90
46458;DHT22;32155;54.076;12.092;2023-04-07T09:40:32;12.30;99.90
46458;DHT22;32155;54.076;12.092;2023-04-07T09:42:58;12.30;99.90
46458;DHT22;32155;54.076;12.092;2023-04-07T09:45:25;12.30;99.90
46458;DHT22;32155;54.076;12.092;2023-04-07T09:47:50;12.50;99.90
46458;DHT22;32155;54.076;12.092;2023-04-07T09:50:39;12.00;99.90
46458;DHT22;32155;54.076;12.092;2023-04-07T11:13:13;7.20;99.90
46458;DHT22;32155;54.076;12.092;2023-04-07T11:15:39;7.50;99.90
46458;DHT22;32155;54.076;12.092;2023-04-07T11:20:46;7.60;99.90
46458;DHT22;32155;54.076;12.092;2023-04-07T11:23:13;7.60;99.90
46458;DHT22;32155;54.076;12.092;2023-04-07T11:25:42;7.60;99.90
46458;DHT22;32155;54.076;12.092;2023-04-07T11:28:12;7.50;99.90
46458;DHT22;32155;54.076;12.092;2023-04-07T11:30:50;7.60;99.90
46458;DHT22;32155;54.076;12.092;2023-04-07T11:33:21;7.70;99.90
46458;DHT22;32155;54.076;12.092;2023-04-07T11:35:53;7.70;99.90
46458;DHT22;32155;54.076;12.092;2023-04-07T11:38:20;7.60;99.90
46458;DHT22;32155;54.076;12.092;2023-04-07T11:40:48;7.50;99.90
46458;DHT22;32155;54.076;12.092;2023-04-07T11:43:28;7.50;99.90
46458;DHT22;32155;54.076;12.092;2023-04-07T11:46:10;7.50;99.90
46458;DHT22;32155;54.076;12.092;2023-04-07T11:48:40;7.60;99.90
46458;DHT22;32155;54.076;12.092;2023-04-07T11:51:17;7.60;99.90
46458;DHT22;32155;54.076;12.092;2023-04-07T11:53:44;7.40;99.90
46458;DHT22;32155;54.076;12.092;2023-04-07T11:56:12;7.40;99.90
46458;DHT22;32155;54.076;12.092;2023-04-07T11:58:49;7.50;99.90
46458;DHT22;32155;54.076;12.092;2023-04-07T12:01:15;7.70;99.90
46458;DHT22;32155;54.076;12.092;2023-04-07T12:03:55;7.70;99.90
46458;DHT22;32155;54.076;12.092;2023-04-07T12:06:34;7.50;99.90
46458;DHT22;32155;54.076;12.092;2023-04-07T12:09:04;7.40;99.90
46458;DHT22;32155;54.076;12.092;2023-04-07T12:11:30;7.20;99.90
46458;DHT22;32155;54.076;12.092;2023-04-07T12:14:00;7.20;99.90
46458;DHT22;32155;54.076;12.092;2023-04-07T12:16:26;7.30;99.90
46458;DHT22;32155;54.076;12.092;2023-04-07T12:18:52;7.20;99.90
46458;DHT22;32155;54.076;12.092;2023-04-07T12:21:18;7.00;99.90
46458;DHT22;32155;54.076;12.092;2023-04-07T12:23:50;6.90;99.90
46458;DHT22;32155;54.076;12.092;2023-04-07T12:26:16;6.80;99.90
46458;DHT22;32155;54.076;12.092;2023-04-07T12:28:42;6.80;99.90
46458;DHT22;32155;54.076;12.092;2023-04-07T12:31:07;6.90;99.90
46458;DHT22;32155;54.076;12.092;2023-04-07T12:33:35;6.80;99.90
46458;DHT22;32155;54.076;12.092;2023-04-07T12:36:03;6.90;99.90
46458;DHT22;32155;54.076;12.092;2023-04-07T12:38:29;7.00;99.90
46458;DHT22;32155;54.076;12.092;2023-04-07T12:40:55;7.00;99.90
46458;DHT22;32155;54.076;12.092;2023-04-07T12:43:30;7.10;99.90
46458;DHT22;32155;54.076;12.092;2023-04-07T12:45:58;7.20;99.90
46458;DHT22;32155;54.076;12.092;2023-04-07T12:48:24;7.20;99.90
46458;DHT22;32155;54.076;12.092;2023-04-07T12:50:51;7.30;99.90
46458;DHT22;32155;54.076;12.092;2023-04-07T12:53:27;7.20;99.90
46458;DHT22;32155;54.076;12.092;2023-04-07T12:55:53;7.30;99.90
46458;DHT22;32155;54.076;12.092;2023-04-07T12:58:21;7.20;99.90
46458;DHT22;32155;54.076;12.092;2023-04-07T13:00:47;7.20;99.90
46458;DHT22;32155;54.076;12.092;2023-04-07T13:03:12;7.20;99.90
46458;DHT22;32155;54.076;12.092;2023-04-07T13:05:38;7.20;99.90
46458;DHT22;32155;54.076;12.092;2023-04-07T13:08:04;7.30;99.90
46458;DHT22;32155;54.076;12.092;2023-04-07T13:10:31;7.10;99.90
46458;DHT22;32155;54.076;12.092;2023-04-07T13:12:56;7.10;99.90
46458;DHT22;32155;54.076;12.092;2023-04-07T13:15:22;7.10;99.90
46458;DHT22;32155;54.076;12.092;2023-04-07T13:17:49;7.10;99.90
46458;DHT22;32155;54.076;12.092;2023-04-07T13:20:14;7.00;99.90
46458;DHT22;32155;54.076;12.092;2023-04-07T13:22:43;7.00;99.90
46458;DHT22;32155;54.076;12.092;2023-04-07T13:25:08;7.10;99.90
46458;DHT22;32155;54.076;12.092;2023-04-07T13:27:36;7.10;99.90
46458;DHT22;32155;54.076;12.092;2023-04-07T13:30:05;7.10;99.90
46458;DHT22;32155;54.076;12.092;2023-04-07T13:35:40;6.90;99.90
46458;DHT22;32155;54.076;12.092;2023-04-07T13:38:15;6.90;99.90
46458;DHT22;32155;54.076;12.092;2023-04-07T13:45:00;6.70;99.90
46458;DHT22;32155;54.076;12.092;2023-04-07T13:47:58;6.70;99.90
46458;DHT22;32155;54.076;12.092;2023-04-07T13:50:46;6.70;99.90
46458;DHT22;32155;54.076;12.092;2023-04-07T13:53:40;6.70;99.90
46458;DHT22;32155;54.076;12.092;2023-04-07T13:57:00;6.60;99.90
46458;DHT22;32155;54.076;12.092;2023-04-07T14:03:46;6.60;99.90
46458;DHT22;32155;54.076;12.092;2023-04-07T14:06:55;6.60;99.90
46458;DHT22;32155;54.076;12.092;2023-04-07T14:10:06;6.60;99.90
46458;DHT22;32155;54.076;12.092;2023-04-07T14:12:37;6.70;99.90
46458;DHT22;32155;54.076;12.092;2023-04-07T14:15:05;6.60;99.90
46458;DHT22;32155;54.076;12.092;2023-04-07T14:17:38;6.50;99.90
46458;DHT22;32155;54.076;12.092;2023-04-07T14:20:06;6.60;99.90
46458;DHT22;32155;54.076;12.092;2023-04-07T14:22:32;6.60;99.90
46458;DHT22;32155;54.076;12.092;2023-04-07T14:24:58;6.70;99.90
46458;DHT22;32155;54.076;12.092;2023-04-07T14:27:23;6.60;99.90
46458;DHT22;32155;54.076;12.092;2023-04-07T14:29:49;6.50;99.90
46458;DHT22;32155;54.076;12.092;2023-04-07T14:32:15;6.50;99.90
46458;DHT22;32155;54.076;12.092;2023-04-07T14:34:41;6.50;99.90
46458;DHT22;32155;54.076;12.092;2023-04-07T14:37:07;6.60;99.90
46458;DHT22;32155;54.076;12.092;2023-04-07T14:39:32;6.60;99.90
46458;DHT22;32155;54.076;12.092;2023-04-07T14:41:58;6.60;99.90
46458;DHT22;32155;54.076;12.092;2023-04-07T14:44:25;6.50;99.90
46458;DHT22;32155;54.076;12.092;2023-04-07T14:46:53;6.50;99.90
46458;DHT22;32155;54.076;12.092;2023-04-07T14:49:19;6.40;99.90
46458;DHT22;32155;54.076;12.092;2023-04-07T14:51:47;6.40;99.90
46458;DHT22;32155;54.076;12.092;2023-04-07T14:54:13;6.40;99.90
46458;DHT22;32155;54.076;12.092;2023-04-07T14:56:39;6.40;99.90
46458;DHT22;32155;54.076;12.092;2023-04-07T14:59:07;6.40;99.90
46458;DHT22;32155;54.076;12.092;2023-04-07T15:01:36;6.30;99.90
46458;DHT22;32155;54.076;12.092;2023-04-07T15:04:01;6.20;99.90
46458;DHT22;32155;54.076;12.092;2023-04-07T15:06:27;6.10;99.90
46458;DHT22;32155;54.076;12.092;2023-04-07T15:08:56;6.20;99.90
46458;DHT22;32155;54.076;12.092;2023-04-07T15:11:24;6.20;99.90
46458;DHT22;32155;54.076;12.092;2023-04-07T15:13:50;6.20;99.90
46458;DHT22;32155;54.076;12.092;2023-04-07T15:16:19;6.30;99.90
46458;DHT22;32155;54.076;12.092;2023-04-07T15:18:45;6.30;99.90
46458;DHT22;32155;54.076;12.092;2023-04-07T15:21:12;6.20;99.90
46458;DHT22;32155;54.076;12.092;2023-04-07T15:23:38;6.20;99.90
46458;DHT22;32155;54.076;12.092;2023-04-07T15:26:06;6.30;99.90
46458;DHT22;32155;54.076;12.092;2023-04-07T15:28:35;6.30;99.90
46458;DHT22;32155;54.076;12.092;2023-04-07T15:31:03;6.30;99.90
46458;DHT22;32155;54.076;12.092;2023-04-07T15:33:37;6.30;99.90
46458;DHT22;32155;54.076;12.092;2023-04-07T15:36:04;6.20;99.90
46458;DHT22;32155;54.076;12.092;2023-04-07T15:38:30;6.20;99.90
46458;DHT22;32155;54.076;12.092;2023-04-07T15:40:58;6.30;99.90
46458;DHT22;32155;54.076;12.092;2023-04-07T15:43:27;6.20;99.90
46458;DHT22;32155;54.076;12.092;2023-04-07T15:45:54;6.30;99.90
46458;DHT22;32155;54.076;12.092;2023-04-07T15:48:20;6.30;99.90
46458;DHT22;32155;54.076;12.092;2023-04-07T15:50:48;6.30;99.90
46458;DHT22;32155;54.076;12.092;2023-04-07T15:53:19;6.40;99.90
46458;DHT22;32155;54.076;12.092;2023-04-07T15:55:47;6.40;99.90
46458;DHT22;32155;54.076;12.092;2023-04-07T15:58:18;6.30;99.90
46458;DHT22;32155;54.076;12.092;2023-04-07T16:00:53;6.30;99.90
46458;DHT22;32155;54.076;12.092;2023-04-07T16:03:19;6.30;99.90
46458;DHT22;32155;54.076;12.092;2023-04-07T16:05:50;6.30;99.90
46458;DHT22;32155;54.076;12.092;2023-04-07T16:08:18;6.20;99.90
46458;DHT22;32155;54.076;12.092;2023-04-07T16:10:44;6.20;99.90
46458;DHT22;32155;54.076;12.092;2023-04-07T16:13:10;6.20;99.90
46458;DHT22;32155;54.076;12.092;2023-04-07T16:15:38;6.20;99.90
46458;DHT22;32155;54.076;12.092;2023-04-07T16:18:05;6.20;99.90
46458;DHT22;32155;54.076;12.092;2023-04-07T16:20:34;6.20;99.90
46458;DHT22;32155;54.076;12.092;2023-04-07T16:22:59;6.20;99.90
46458;DHT22;32155;54.076;12.092;2023-04-07T16:25:25;6.20;99.90
46458;DHT22;32155;54.076;12.092;2023-04-07T16:27:51;6.20;99.90
46458;DHT22;32155;54.076;12.092;2023-04-07T16:30:23;6.20;99.90
46458;DHT22;32155;54.076;12.092;2023-04-07T16:32:49;6.20;99.90
46458;DHT22;32155;54.076;12.092;2023-04-07T16:35:18;6.20;99.90
46458;DHT22;32155;54.076;12.092;2023-04-07T16:37:46;6.10;99.90
46458;DHT22;32155;54.076;12.092;2023-04-07T16:40:14;6.10;99.90
46458;DHT22;32155;54.076;12.092;2023-04-07T16:42:42;6.10;99.90
46458;DHT22;32155;54.076;12.092;2023-04-07T16:45:11;6.10;99.90
46458;DHT22;32155;54.076;12.092;2023-04-07T16:47:37;6.10;99.90
46458;DHT22;32155;54.076;12.092;2023-04-07T16:50:06;6.10;99.90
46458;DHT22;32155;54.076;12.092;2023-04-07T16:52:36;6.10;99.90
46458;DHT22;32155;54.076;12.092;2023-04-07T16:55:05;6.00;99.90
46458;DHT22;32155;54.076;12.092;2023-04-07T16:57:30;6.00;99.90
46458;DHT22;32155;54.076;12.092;2023-04-07T16:59:57;6.00;99.90
46458;DHT22;32155;54.076;12.092;2023-04-07T17:02:23;5.90;99.90
46458;DHT22;32155;54.076;12.092;2023-04-07T17:04:48;6.00;99.90
46458;DHT22;32155;54.076;12.092;2023-04-07T17:07:15;6.00;99.90
46458;DHT22;32155;54.076;12.092;2023-04-07T20:12:24;5.90;99.90
46458;DHT22;32155;54.076;12.092;2023-04-07T20:22:43;5.90;99.90
46458;DHT22;32155;54.076;12.092;2023-04-07T20:26:01;5.90;99.90
46458;DHT22;32155;54.076;12.092;2023-04-07T20:33:29;5.90;99.90
46458;DHT22;32155;54.076;12.092;2023-04-07T20:40:22;5.90;99.90
46458;DHT22;32155;54.076;12.092;2023-04-07T20:47:35;5.90;99.90
46458;DHT22;32155;54.076;12.092;2023-04-07T20:51:12;5.90;99.90
46458;DHT22;32155;54.076;12.092;2023-04-07T20:57:54;5.90;99.90